< < Back
Terminal Aerodrome Forecast


Current Version              Previous Versions:   1  2  3  4  5  6  7  8  9  

Terminal Aerodrome Forecast

640
FTUS42 KCHS 282300
TAFCHS
TAF
KCHS 282320Z 2900/2924 VRB03KT P6SM SKC=

Latest METAR

177
SAUS80 KWBC 290800 CCA
MTRCHS
METAR KCHS 290756Z 00000KT 10SM CLR 00/M01 A3033 RMK AO2 SLP269
T00001011 $


USA.gov is the U.S. government's official web portal to all federal, state and local government web resources and services.